sensor_id;sensor_type;location;lat;lon;timestamp;temperature;humidity
15617;DHT22;7908;51.688;7.130;2023-02-28T00:00:38;-1.60;99.90
15617;DHT22;7908;51.688;7.130;2023-02-28T00:03:07;-1.60;99.90
15617;DHT22;7908;51.688;7.130;2023-02-28T00:05:35;-1.70;99.90
15617;DHT22;7908;51.688;7.130;2023-02-28T00:08:04;-1.70;99.90
15617;DHT22;7908;51.688;7.130;2023-02-28T00:10:33;-1.70;99.90
15617;DHT22;7908;51.688;7.130;2023-02-28T00:13:05;-1.70;99.90
15617;DHT22;7908;51.688;7.130;2023-02-28T00:15:35;-1.80;99.90
15617;DHT22;7908;51.688;7.130;2023-02-28T00:18:04;-1.80;99.90
15617;DHT22;7908;51.688;7.130;2023-02-28T00:20:33;-1.80;99.90
15617;DHT22;7908;51.688;7.130;2023-02-28T00:23:01;-1.80;99.90
15617;DHT22;7908;51.688;7.130;2023-02-28T00:25:30;-1.80;99.90
15617;DHT22;7908;51.688;7.130;2023-02-28T00:27:58;-1.90;99.90
15617;DHT22;7908;51.688;7.130;2023-02-28T00:30:27;-1.90;99.90
15617;DHT22;7908;51.688;7.130;2023-02-28T00:32:57;-1.90;99.90
15617;DHT22;7908;51.688;7.130;2023-02-28T00:35:26;-1.90;99.90
15617;DHT22;7908;51.688;7.130;2023-02-28T00:37:55;-1.90;99.90
15617;DHT22;7908;51.688;7.130;2023-02-28T00:40:23;-1.90;99.90
15617;DHT22;7908;51.688;7.130;2023-02-28T00:42:52;-2.00;99.90
15617;DHT22;7908;51.688;7.130;2023-02-28T00:45:21;-2.00;99.90
15617;DHT22;7908;51.688;7.130;2023-02-28T00:47:50;-2.10;99.90
15617;DHT22;7908;51.688;7.130;2023-02-28T00:50:20;-2.10;99.90
15617;DHT22;7908;51.688;7.130;2023-02-28T00:52:48;-2.20;99.90
15617;DHT22;7908;51.688;7.130;2023-02-28T00:55:17;-2.20;99.90
15617;DHT22;7908;51.688;7.130;2023-02-28T00:57:46;-2.20;99.90
15617;DHT22;7908;51.688;7.130;2023-02-28T01:00:15;-2.20;99.90
15617;DHT22;7908;51.688;7.130;2023-02-28T01:02:44;-2.20;99.90
15617;DHT22;7908;51.688;7.130;2023-02-28T01:05:13;-2.30;99.90
15617;DHT22;7908;51.688;7.130;2023-02-28T01:07:43;-2.30;99.90
15617;DHT22;7908;51.688;7.130;2023-02-28T01:10:11;-2.30;99.90
15617;DHT22;7908;51.688;7.130;2023-02-28T01:12:40;-2.30;99.90
15617;DHT22;7908;51.688;7.130;2023-02-28T01:15:10;-2.40;99.90
15617;DHT22;7908;51.688;7.130;2023-02-28T01:17:39;-2.40;99.90
15617;DHT22;7908;51.688;7.130;2023-02-28T01:20:08;-2.40;99.90
15617;DHT22;7908;51.688;7.130;2023-02-28T01:22:37;-2.40;99.90
15617;DHT22;7908;51.688;7.130;2023-02-28T01:25:08;-2.40;99.90
15617;DHT22;7908;51.688;7.130;2023-02-28T01:27:36;-2.40;99.90
15617;DHT22;7908;51.688;7.130;2023-02-28T01:30:08;-2.40;99.90
15617;DHT22;7908;51.688;7.130;2023-02-28T01:32:37;-2.50;99.90
15617;DHT22;7908;51.688;7.130;2023-02-28T01:35:06;-2.50;99.90
15617;DHT22;7908;51.688;7.130;2023-02-28T01:37:34;-2.50;99.90
15617;DHT22;7908;51.688;7.130;2023-02-28T01:40:04;-2.50;99.90
15617;DHT22;7908;51.688;7.130;2023-02-28T01:42:34;-2.50;99.90
15617;DHT22;7908;51.688;7.130;2023-02-28T01:45:20;-2.50;99.90
15617;DHT22;7908;51.688;7.130;2023-02-28T01:47:51;-2.50;99.90
15617;DHT22;7908;51.688;7.130;2023-02-28T01:50:22;-2.60;99.90
15617;DHT22;7908;51.688;7.130;2023-02-28T01:52:53;-2.60;99.90
15617;DHT22;7908;51.688;7.130;2023-02-28T01:55:23;-2.60;99.90
15617;DHT22;7908;51.688;7.130;2023-02-28T01:57:59;-2.60;99.90
15617;DHT22;7908;51.688;7.130;2023-02-28T02:00:30;-2.60;99.90
15617;DHT22;7908;51.688;7.130;2023-02-28T02:03:00;-2.70;99.90
15617;DHT22;7908;51.688;7.130;2023-02-28T02:05:32;-2.70;99.90
15617;DHT22;7908;51.688;7.130;2023-02-28T02:08:03;-2.70;99.90
15617;DHT22;7908;51.688;7.130;2023-02-28T02:10:34;-2.80;99.90
15617;DHT22;7908;51.688;7.130;2023-02-28T02:16:26;-2.80;99.90
15617;DHT22;7908;51.688;7.130;2023-02-28T02:19:01;-2.90;99.90
15617;DHT22;7908;51.688;7.130;2023-02-28T02:22:03;-3.00;99.90
15617;DHT22;7908;51.688;7.130;2023-02-28T02:24:58;-3.00;99.90
15617;DHT22;7908;51.688;7.130;2023-02-28T02:27:55;-3.00;99.90
15617;DHT22;7908;51.688;7.130;2023-02-28T02:30:41;-3.00;99.90
15617;DHT22;7908;51.688;7.130;2023-02-28T02:36:19;-3.10;99.90
15617;DHT22;7908;51.688;7.130;2023-02-28T02:38:51;-3.10;99.90
15617;DHT22;7908;51.688;7.130;2023-02-28T02:41:27;-3.10;99.90
15617;DHT22;7908;51.688;7.130;2023-02-28T02:44:03;-3.10;99.90
15617;DHT22;7908;51.688;7.130;2023-02-28T02:46:37;-3.20;99.90
15617;DHT22;7908;51.688;7.130;2023-02-28T02:49:10;-3.20;99.90
15617;DHT22;7908;51.688;7.130;2023-02-28T02:51:42;-3.20;99.90
15617;DHT22;7908;51.688;7.130;2023-02-28T02:54:14;-3.20;99.90
15617;DHT22;7908;51.688;7.130;2023-02-28T02:56:46;-3.20;99.90
15617;DHT22;7908;51.688;7.130;2023-02-28T02:59:18;-3.30;99.90
15617;DHT22;7908;51.688;7.130;2023-02-28T03:01:51;-3.30;99.90
15617;DHT22;7908;51.688;7.130;2023-02-28T03:04:23;-3.30;99.90
15617;DHT22;7908;51.688;7.130;2023-02-28T03:06:54;-3.40;99.90
15617;DHT22;7908;51.688;7.130;2023-02-28T03:09:24;-3.30;99.90
15617;DHT22;7908;51.688;7.130;2023-02-28T03:11:55;-3.40;99.90
15617;DHT22;7908;51.688;7.130;2023-02-28T03:14:37;-3.40;99.90
15617;DHT22;7908;51.688;7.130;2023-02-28T03:17:21;-3.40;99.90
15617;DHT22;7908;51.688;7.130;2023-02-28T03:19:58;-3.40;99.90
15617;DHT22;7908;51.688;7.130;2023-02-28T03:22:49;-3.40;99.90
15617;DHT22;7908;51.688;7.130;2023-02-28T03:25:29;-3.40;99.90
15617;DHT22;7908;51.688;7.130;2023-02-28T03:28:04;-3.40;99.90
15617;DHT22;7908;51.688;7.130;2023-02-28T03:30:39;-3.40;99.90
15617;DHT22;7908;51.688;7.130;2023-02-28T03:33:12;-3.50;99.90
15617;DHT22;7908;51.688;7.130;2023-02-28T03:35:47;-3.50;99.90
15617;DHT22;7908;51.688;7.130;2023-02-28T03:38:22;-3.60;99.90
15617;DHT22;7908;51.688;7.130;2023-02-28T03:40:57;-3.60;99.90
15617;DHT22;7908;51.688;7.130;2023-02-28T03:43:29;-3.60;99.90
15617;DHT22;7908;51.688;7.130;2023-02-28T03:46:02;-3.60;99.90
15617;DHT22;7908;51.688;7.130;2023-02-28T03:48:36;-3.70;99.90
15617;DHT22;7908;51.688;7.130;2023-02-28T03:51:09;-3.70;99.90
15617;DHT22;7908;51.688;7.130;2023-02-28T03:53:43;-3.70;99.90
15617;DHT22;7908;51.688;7.130;2023-02-28T03:56:16;-3.70;99.90
15617;DHT22;7908;51.688;7.130;2023-02-28T03:58:49;-3.70;99.90
15617;DHT22;7908;51.688;7.130;2023-02-28T04:01:22;-3.80;99.90
15617;DHT22;7908;51.688;7.130;2023-02-28T04:03:51;-3.80;99.90
15617;DHT22;7908;51.688;7.130;2023-02-28T04:06:21;-3.80;99.90
15617;DHT22;7908;51.688;7.130;2023-02-28T04:08:52;-3.80;99.90
15617;DHT22;7908;51.688;7.130;2023-02-28T04:11:24;-3.80;99.90
15617;DHT22;7908;51.688;7.130;2023-02-28T04:13:55;-3.80;99.90
15617;DHT22;7908;51.688;7.130;2023-02-28T04:16:24;-3.80;99.90
15617;DHT22;7908;51.688;7.130;2023-02-28T04:19:02;-3.80;99.90
15617;DHT22;7908;51.688;7.130;2023-02-28T04:21:34;-3.80;99.90
15617;DHT22;7908;51.688;7.130;2023-02-28T04:24:05;-3.80;99.90
15617;DHT22;7908;51.688;7.130;2023-02-28T04:26:36;-3.80;99.90
15617;DHT22;7908;51.688;7.130;2023-02-28T04:29:05;-3.80;99.90
15617;DHT22;7908;51.688;7.130;2023-02-28T04:31:34;-3.80;99.90
15617;DHT22;7908;51.688;7.130;2023-02-28T04:34:03;-3.90;99.90
15617;DHT22;7908;51.688;7.130;2023-02-28T04:36:31;-3.90;99.90
15617;DHT22;7908;51.688;7.130;2023-02-28T04:39:00;-3.90;99.90
15617;DHT22;7908;51.688;7.130;2023-02-28T04:41:30;-3.90;99.90
15617;DHT22;7908;51.688;7.130;2023-02-28T04:43:59;-3.90;99.90
15617;DHT22;7908;51.688;7.130;2023-02-28T04:46:28;-3.90;99.90
15617;DHT22;7908;51.688;7.130;2023-02-28T04:48:57;-3.90;99.90
15617;DHT22;7908;51.688;7.130;2023-02-28T04:51:26;-3.90;99.90
15617;DHT22;7908;51.688;7.130;2023-02-28T04:53:55;-3.90;99.90
15617;DHT22;7908;51.688;7.130;2023-02-28T04:56:24;-3.90;99.90
15617;DHT22;7908;51.688;7.130;2023-02-28T04:58:54;-3.90;99.90
15617;DHT22;7908;51.688;7.130;2023-02-28T05:01:24;-3.90;99.90
15617;DHT22;7908;51.688;7.130;2023-02-28T05:03:57;-3.90;99.90
15617;DHT22;7908;51.688;7.130;2023-02-28T05:06:27;-3.90;99.90
15617;DHT22;7908;51.688;7.130;2023-02-28T05:08:57;-3.90;99.90
15617;DHT22;7908;51.688;7.130;2023-02-28T05:11:27;-3.90;99.90
15617;DHT22;7908;51.688;7.130;2023-02-28T05:14:03;-4.00;99.90
15617;DHT22;7908;51.688;7.130;2023-02-28T05:16:32;-3.90;99.90
15617;DHT22;7908;51.688;7.130;2023-02-28T05:19:00;-4.00;99.90
15617;DHT22;7908;51.688;7.130;2023-02-28T05:21:31;-4.00;99.90
15617;DHT22;7908;51.688;7.130;2023-02-28T05:24:02;-4.00;99.90
15617;DHT22;7908;51.688;7.130;2023-02-28T05:26:31;-4.00;99.90
15617;DHT22;7908;51.688;7.130;2023-02-28T05:29:03;-4.00;99.90
15617;DHT22;7908;51.688;7.130;2023-02-28T05:31:32;-4.00;99.90
15617;DHT22;7908;51.688;7.130;2023-02-28T05:34:01;-4.00;99.90
15617;DHT22;7908;51.688;7.130;2023-02-28T05:36:31;-4.00;99.90
15617;DHT22;7908;51.688;7.130;2023-02-28T05:39:01;-4.00;99.90
15617;DHT22;7908;51.688;7.130;2023-02-28T05:41:30;-4.10;99.90
15617;DHT22;7908;51.688;7.130;2023-02-28T05:43:58;-4.10;99.90
15617;DHT22;7908;51.688;7.130;2023-02-28T05:46:29;-4.10;99.90
15617;DHT22;7908;51.688;7.130;2023-02-28T05:48:58;-4.10;99.90
15617;DHT22;7908;51.688;7.130;2023-02-28T05:51:27;-4.10;99.90
15617;DHT22;7908;51.688;7.130;2023-02-28T05:53:59;-4.10;99.90
15617;DHT22;7908;51.688;7.130;2023-02-28T05:56:28;-4.10;99.90
15617;DHT22;7908;51.688;7.130;2023-02-28T05:58:57;-4.10;99.90
15617;DHT22;7908;51.688;7.130;2023-02-28T06:01:33;-4.10;99.90
15617;DHT22;7908;51.688;7.130;2023-02-28T06:04:04;-4.20;99.90
15617;DHT22;7908;51.688;7.130;2023-02-28T06:06:33;-4.20;99.90
15617;DHT22;7908;51.688;7.130;2023-02-28T06:09:03;-4.20;99.90
15617;DHT22;7908;51.688;7.130;2023-02-28T06:11:32;-4.20;99.90
15617;DHT22;7908;51.688;7.130;2023-02-28T06:14:01;-4.20;99.90
15617;DHT22;7908;51.688;7.130;2023-02-28T06:16:33;-4.20;99.90
15617;DHT22;7908;51.688;7.130;2023-02-28T06:19:03;-4.10;99.90
15617;DHT22;7908;51.688;7.130;2023-02-28T06:21:32;-4.20;99.90
15617;DHT22;7908;51.688;7.130;2023-02-28T06:24:02;-4.20;99.90
15617;DHT22;7908;51.688;7.130;2023-02-28T06:26:30;-4.20;99.90
15617;DHT22;7908;51.688;7.130;2023-02-28T06:28:59;-4.20;99.90
15617;DHT22;7908;51.688;7.130;2023-02-28T06:31:28;-4.20;99.90
15617;DHT22;7908;51.688;7.130;2023-02-28T06:33:59;-4.20;99.90
15617;DHT22;7908;51.688;7.130;2023-02-28T06:36:28;-4.20;99.90
15617;DHT22;7908;51.688;7.130;2023-02-28T06:38:56;-4.20;99.90
15617;DHT22;7908;51.688;7.130;2023-02-28T06:41:26;-4.20;99.90
15617;DHT22;7908;51.688;7.130;2023-02-28T06:43:57;-4.20;99.90
15617;DHT22;7908;51.688;7.130;2023-02-28T06:46:26;-4.20;99.90
15617;DHT22;7908;51.688;7.130;2023-02-28T06:48:55;-4.20;99.90
15617;DHT22;7908;51.688;7.130;2023-02-28T06:51:25;-4.20;99.90
15617;DHT22;7908;51.688;7.130;2023-02-28T06:53:54;-4.10;99.90
15617;DHT22;7908;51.688;7.130;2023-02-28T06:56:23;-4.10;99.90
15617;DHT22;7908;51.688;7.130;2023-02-28T06:58:52;-4.10;99.90
15617;DHT22;7908;51.688;7.130;2023-02-28T07:01:21;-4.10;99.90
15617;DHT22;7908;51.688;7.130;2023-02-28T07:03:51;-4.10;99.90
15617;DHT22;7908;51.688;7.130;2023-02-28T07:06:20;-4.00;99.90
15617;DHT22;7908;51.688;7.130;2023-02-28T07:08:53;-4.00;99.90
15617;DHT22;7908;51.688;7.130;2023-02-28T07:11:24;-3.90;99.90
15617;DHT22;7908;51.688;7.130;2023-02-28T07:13:54;-3.90;99.90
15617;DHT22;7908;51.688;7.130;2023-02-28T07:16:24;-3.80;99.90
15617;DHT22;7908;51.688;7.130;2023-02-28T07:18:53;-3.80;99.90
15617;DHT22;7908;51.688;7.130;2023-02-28T07:21:22;-3.70;99.90
15617;DHT22;7908;51.688;7.130;2023-02-28T07:23:52;-3.60;99.90
15617;DHT22;7908;51.688;7.130;2023-02-28T07:26:21;-3.60;99.90
15617;DHT22;7908;51.688;7.130;2023-02-28T07:28:50;-3.50;99.90
15617;DHT22;7908;51.688;7.130;2023-02-28T07:31:19;-3.50;99.90
15617;DHT22;7908;51.688;7.130;2023-02-28T07:33:48;-3.40;99.90
15617;DHT22;7908;51.688;7.130;2023-02-28T07:36:17;-3.40;99.90
15617;DHT22;7908;51.688;7.130;2023-02-28T07:38:47;-3.30;99.90
15617;DHT22;7908;51.688;7.130;2023-02-28T07:41:20;-3.20;99.90
15617;DHT22;7908;51.688;7.130;2023-02-28T07:43:53;-3.10;99.90
15617;DHT22;7908;51.688;7.130;2023-02-28T07:46:22;-3.00;99.90
15617;DHT22;7908;51.688;7.130;2023-02-28T07:48:51;-2.90;99.90
15617;DHT22;7908;51.688;7.130;2023-02-28T07:51:21;-2.80;99.90
15617;DHT22;7908;51.688;7.130;2023-02-28T07:53:50;-2.70;99.90
15617;DHT22;7908;51.688;7.130;2023-02-28T07:56:20;-2.60;99.90
15617;DHT22;7908;51.688;7.130;2023-02-28T07:58:49;-2.50;99.90
15617;DHT22;7908;51.688;7.130;2023-02-28T08:01:18;-2.50;99.90
15617;DHT22;7908;51.688;7.130;2023-02-28T08:03:46;-2.40;99.90
15617;DHT22;7908;51.688;7.130;2023-02-28T08:06:17;-2.30;99.90
15617;DHT22;7908;51.688;7.130;2023-02-28T08:08:46;-2.20;99.90
15617;DHT22;7908;51.688;7.130;2023-02-28T08:11:15;-2.00;99.90
15617;DHT22;7908;51.688;7.130;2023-02-28T08:13:45;-1.90;99.90
15617;DHT22;7908;51.688;7.130;2023-02-28T08:16:15;-1.80;99.90
15617;DHT22;7908;51.688;7.130;2023-02-28T08:18:50;-1.70;99.90
15617;DHT22;7908;51.688;7.130;2023-02-28T08:21:19;-1.50;99.90
15617;DHT22;7908;51.688;7.130;2023-02-28T08:23:48;-1.40;99.90
15617;DHT22;7908;51.688;7.130;2023-02-28T08:26:18;-1.30;99.90
15617;DHT22;7908;51.688;7.130;2023-02-28T08:28:49;-1.20;99.90
15617;DHT22;7908;51.688;7.130;2023-02-28T08:31:18;-1.10;99.90
15617;DHT22;7908;51.688;7.130;2023-02-28T08:33:47;-1.10;99.90
15617;DHT22;7908;51.688;7.130;2023-02-28T08:36:19;-0.90;99.90
15617;DHT22;7908;51.688;7.130;2023-02-28T08:38:47;-0.80;99.90
15617;DHT22;7908;51.688;7.130;2023-02-28T08:41:16;-0.70;99.90
15617;DHT22;7908;51.688;7.130;2023-02-28T08:43:45;-0.60;99.90
15617;DHT22;7908;51.688;7.130;2023-02-28T08:46:15;-0.50;99.90
15617;DHT22;7908;51.688;7.130;2023-02-28T08:48:44;-0.30;99.90
15617;DHT22;7908;51.688;7.130;2023-02-28T08:51:14;-0.20;99.90
15617;DHT22;7908;51.688;7.130;2023-02-28T08:53:48;-0.10;99.90
15617;DHT22;7908;51.688;7.130;2023-02-28T08:56:17;0.00;99.90
15617;DHT22;7908;51.688;7.130;2023-02-28T08:58:47;0.10;99.90
15617;DHT22;7908;51.688;7.130;2023-02-28T09:01:19;0.20;99.90
15617;DHT22;7908;51.688;7.130;2023-02-28T09:03:49;0.40;99.90
15617;DHT22;7908;51.688;7.130;2023-02-28T09:06:19;0.50;99.90
15617;DHT22;7908;51.688;7.130;2023-02-28T09:08:48;0.60;99.90
15617;DHT22;7908;51.688;7.130;2023-02-28T09:11:17;0.70;99.90
15617;DHT22;7908;51.688;7.130;2023-02-28T09:13:46;0.80;99.90
15617;DHT22;7908;51.688;7.130;2023-02-28T09:16:17;1.00;99.90
15617;DHT22;7908;51.688;7.130;2023-02-28T09:18:46;1.00;99.90
15617;DHT22;7908;51.688;7.130;2023-02-28T09:21:16;1.10;99.90
15617;DHT22;7908;51.688;7.130;2023-02-28T09:23:49;1.20;99.90
15617;DHT22;7908;51.688;7.130;2023-02-28T09:26:20;1.30;99.90
15617;DHT22;7908;51.688;7.130;2023-02-28T09:28:49;1.50;99.90
15617;DHT22;7908;51.688;7.130;2023-02-28T09:31:22;1.60;99.90
15617;DHT22;7908;51.688;7.130;2023-02-28T09:33:52;1.70;99.90
15617;DHT22;7908;51.688;7.130;2023-02-28T09:36:23;1.70;99.90
15617;DHT22;7908;51.688;7.130;2023-02-28T09:39:07;1.80;99.90
15617;DHT22;7908;51.688;7.130;2023-02-28T09:41:38;1.80;99.90
15617;DHT22;7908;51.688;7.130;2023-02-28T09:44:20;1.90;99.90
15617;DHT22;7908;51.688;7.130;2023-02-28T09:46:56;2.00;99.90
15617;DHT22;7908;51.688;7.130;2023-02-28T09:49:34;2.00;99.90
15617;DHT22;7908;51.688;7.130;2023-02-28T09:52:09;2.10;99.90
15617;DHT22;7908;51.688;7.130;2023-02-28T09:54:38;2.20;99.90
15617;DHT22;7908;51.688;7.130;2023-02-28T09:57:13;2.30;99.90
15617;DHT22;7908;51.688;7.130;2023-02-28T10:00:05;2.30;99.90
15617;DHT22;7908;51.688;7.130;2023-02-28T10:02:50;2.40;99.90
15617;DHT22;7908;51.688;7.130;2023-02-28T10:05:21;2.40;99.90
15617;DHT22;7908;51.688;7.130;2023-02-28T10:08:02;2.50;99.90
15617;DHT22;7908;51.688;7.130;2023-02-28T10:10:36;2.50;99.90
15617;DHT22;7908;51.688;7.130;2023-02-28T10:13:15;2.60;99.90
15617;DHT22;7908;51.688;7.130;2023-02-28T10:15:47;2.70;99.90
15617;DHT22;7908;51.688;7.130;2023-02-28T10:18:23;2.70;99.90
15617;DHT22;7908;51.688;7.130;2023-02-28T10:20:54;2.70;99.90
15617;DHT22;7908;51.688;7.130;2023-02-28T10:23:27;2.70;99.90
15617;DHT22;7908;51.688;7.130;2023-02-28T10:26:00;2.80;99.90
15617;DHT22;7908;51.688;7.130;2023-02-28T10:28:29;2.80;99.90
15617;DHT22;7908;51.688;7.130;2023-02-28T10:30:59;2.80;99.90
15617;DHT22;7908;51.688;7.130;2023-02-28T10:33:32;2.80;99.90
15617;DHT22;7908;51.688;7.130;2023-02-28T10:36:08;2.80;99.90
15617;DHT22;7908;51.688;7.130;2023-02-28T10:38:47;2.90;99.90
15617;DHT22;7908;51.688;7.130;2023-02-28T10:41:28;3.00;99.90
15617;DHT22;7908;51.688;7.130;2023-02-28T10:44:14;2.90;99.60
15617;DHT22;7908;51.688;7.130;2023-02-28T10:46:46;2.90;99.90
15617;DHT22;7908;51.688;7.130;2023-02-28T10:49:20;2.90;99.90
15617;DHT22;7908;51.688;7.130;2023-02-28T10:51:51;3.00;99.90
15617;DHT22;7908;51.688;7.130;2023-02-28T10:54:24;3.10;99.90
15617;DHT22;7908;51.688;7.130;2023-02-28T10:57:15;3.20;99.90
15617;DHT22;7908;51.688;7.130;2023-02-28T10:59:45;3.20;99.90
15617;DHT22;7908;51.688;7.130;2023-02-28T11:02:30;3.20;99.90
15617;DHT22;7908;51.688;7.130;2023-02-28T11:05:27;3.30;99.90
15617;DHT22;7908;51.688;7.130;2023-02-28T11:08:03;3.40;99.90
15617;DHT22;7908;51.688;7.130;2023-02-28T11:10:33;3.40;99.90
15617;DHT22;7908;51.688;7.130;2023-02-28T11:13:02;3.40;99.90
15617;DHT22;7908;51.688;7.130;2023-02-28T11:15:33;3.60;99.90
15617;DHT22;7908;51.688;7.130;2023-02-28T11:18:15;3.60;99.90
15617;DHT22;7908;51.688;7.130;2023-02-28T11:20:50;3.50;99.90
15617;DHT22;7908;51.688;7.130;2023-02-28T11:23:20;3.50;99.90
15617;DHT22;7908;51.688;7.130;2023-02-28T11:25:51;3.60;99.90
15617;DHT22;7908;51.688;7.130;2023-02-28T11:28:28;3.60;99.30
15617;DHT22;7908;51.688;7.130;2023-02-28T11:31:03;3.60;99.30
15617;DHT22;7908;51.688;7.130;2023-02-28T11:33:39;3.60;99.40
15617;DHT22;7908;51.688;7.130;2023-02-28T11:36:13;3.60;99.50
15617;DHT22;7908;51.688;7.130;2023-02-28T11:38:42;3.70;98.90
15617;DHT22;7908;51.688;7.130;2023-02-28T11:41:32;3.80;99.60
15617;DHT22;7908;51.688;7.130;2023-02-28T11:44:23;3.90;98.70
15617;DHT22;7908;51.688;7.130;2023-02-28T11:46:59;3.90;99.10
15617;DHT22;7908;51.688;7.130;2023-02-28T11:49:37;4.00;98.80
15617;DHT22;7908;51.688;7.130;2023-02-28T11:52:20;4.00;98.40
15617;DHT22;7908;51.688;7.130;2023-02-28T11:55:13;4.10;98.10
15617;DHT22;7908;51.688;7.130;2023-02-28T11:58:05;4.10;98.10
15617;DHT22;7908;51.688;7.130;2023-02-28T12:00:57;4.10;98.10
15617;DHT22;7908;51.688;7.130;2023-02-28T12:03:33;4.10;98.00
15617;DHT22;7908;51.688;7.130;2023-02-28T12:06:16;4.20;98.70
15617;DHT22;7908;51.688;7.130;2023-02-28T12:09:02;4.20;98.30
15617;DHT22;7908;51.688;7.130;2023-02-28T12:11:41;4.30;98.20
15617;DHT22;7908;51.688;7.130;2023-02-28T12:14:50;4.40;98.50
15617;DHT22;7908;51.688;7.130;2023-02-28T12:17:28;4.40;98.30
15617;DHT22;7908;51.688;7.130;2023-02-28T12:20:09;4.40;98.60
15617;DHT22;7908;51.688;7.130;2023-02-28T12:22:43;4.40;98.10
15617;DHT22;7908;51.688;7.130;2023-02-28T12:25:52;4.40;98.20
15617;DHT22;7908;51.688;7.130;2023-02-28T12:28:25;4.30;98.50
15617;DHT22;7908;51.688;7.130;2023-02-28T12:30:58;4.30;98.50
15617;DHT22;7908;51.688;7.130;2023-02-28T12:33:34;4.30;98.60
15617;DHT22;7908;51.688;7.130;2023-02-28T12:36:07;4.30;98.60
15617;DHT22;7908;51.688;7.130;2023-02-28T12:38:43;4.30;98.80
15617;DHT22;7908;51.688;7.130;2023-02-28T12:41:18;4.40;98.70
15617;DHT22;7908;51.688;7.130;2023-02-28T12:43:55;4.40;98.00
15617;DHT22;7908;51.688;7.130;2023-02-28T12:46:33;4.40;98.00
15617;DHT22;7908;51.688;7.130;2023-02-28T12:49:06;4.30;98.40
15617;DHT22;7908;51.688;7.130;2023-02-28T12:51:37;4.20;98.70
15617;DHT22;7908;51.688;7.130;2023-02-28T12:54:14;4.20;99.10
15617;DHT22;7908;51.688;7.130;2023-02-28T12:56:49;4.20;99.40
15617;DHT22;7908;51.688;7.130;2023-02-28T12:59:25;4.20;99.30
15617;DHT22;7908;51.688;7.130;2023-02-28T13:05:24;4.20;99.60
15617;DHT22;7908;51.688;7.130;2023-02-28T13:11:01;4.30;99.90
15617;DHT22;7908;51.688;7.130;2023-02-28T13:13:45;4.50;99.80
15617;DHT22;7908;51.688;7.130;2023-02-28T13:16:14;4.60;99.10
15617;DHT22;7908;51.688;7.130;2023-02-28T13:18:45;4.60;99.30
15617;DHT22;7908;51.688;7.130;2023-02-28T13:21:27;4.50;99.50
15617;DHT22;7908;51.688;7.130;2023-02-28T13:24:00;4.50;99.60
15617;DHT22;7908;51.688;7.130;2023-02-28T13:29:39;4.20;99.90
15617;DHT22;7908;51.688;7.130;2023-02-28T13:32:30;4.10;99.90
15617;DHT22;7908;51.688;7.130;2023-02-28T13:38:33;4.20;99.90
15617;DHT22;7908;51.688;7.130;2023-02-28T13:44:23;4.30;99.90
15617;DHT22;7908;51.688;7.130;2023-02-28T13:50:22;4.20;99.90
15617;DHT22;7908;51.688;7.130;2023-02-28T13:56:03;4.30;99.90
15617;DHT22;7908;51.688;7.130;2023-02-28T13:58:41;4.30;99.90
15617;DHT22;7908;51.688;7.130;2023-02-28T14:01:32;4.20;99.90
15617;DHT22;7908;51.688;7.130;2023-02-28T14:07:18;4.20;99.90
15617;DHT22;7908;51.688;7.130;2023-02-28T14:09:55;4.30;99.90
15617;DHT22;7908;51.688;7.130;2023-02-28T14:12:54;4.40;99.90
15617;DHT22;7908;51.688;7.130;2023-02-28T14:18:21;4.30;99.90
15617;DHT22;7908;51.688;7.130;2023-02-28T14:20:57;4.30;99.90
15617;DHT22;7908;51.688;7.130;2023-02-28T14:23:41;4.40;99.90
15617;DHT22;7908;51.688;7.130;2023-02-28T14:26:26;4.40;99.90
15617;DHT22;7908;51.688;7.130;2023-02-28T14:29:14;4.50;99.90
15617;DHT22;7908;51.688;7.130;2023-02-28T14:31:53;4.40;99.90
15617;DHT22;7908;51.688;7.130;2023-02-28T14:34:35;4.50;99.90
15617;DHT22;7908;51.688;7.130;2023-02-28T14:37:09;4.50;99.90
15617;DHT22;7908;51.688;7.130;2023-02-28T14:39:44;4.50;99.90
15617;DHT22;7908;51.688;7.130;2023-02-28T14:42:30;4.50;99.90
15617;DHT22;7908;51.688;7.130;2023-02-28T14:45:00;4.40;99.90
15617;DHT22;7908;51.688;7.130;2023-02-28T14:47:32;4.40;99.90
15617;DHT22;7908;51.688;7.130;2023-02-28T14:50:05;4.40;99.90
15617;DHT22;7908;51.688;7.130;2023-02-28T14:52:35;4.40;99.90
15617;DHT22;7908;51.688;7.130;2023-02-28T14:55:13;4.40;99.90
15617;DHT22;7908;51.688;7.130;2023-02-28T14:57:51;4.40;99.90
15617;DHT22;7908;51.688;7.130;2023-02-28T15:00:24;4.40;99.90
15617;DHT22;7908;51.688;7.130;2023-02-28T15:02:55;4.40;99.90
15617;DHT22;7908;51.688;7.130;2023-02-28T15:05:28;4.50;99.90
15617;DHT22;7908;51.688;7.130;2023-02-28T15:08:12;4.40;99.90
15617;DHT22;7908;51.688;7.130;2023-02-28T15:10:43;4.40;99.90
15617;DHT22;7908;51.688;7.130;2023-02-28T15:13:14;4.40;99.90
15617;DHT22;7908;51.688;7.130;2023-02-28T15:15:47;4.40;99.90
15617;DHT22;7908;51.688;7.130;2023-02-28T15:18:38;4.40;99.90
15617;DHT22;7908;51.688;7.130;2023-02-28T15:21:12;4.40;99.90
15617;DHT22;7908;51.688;7.130;2023-02-28T15:23:46;4.40;99.90
15617;DHT22;7908;51.688;7.130;2023-02-28T15:26:22;4.40;99.90
15617;DHT22;7908;51.688;7.130;2023-02-28T15:28:57;4.40;99.90
15617;DHT22;7908;51.688;7.130;2023-02-28T15:31:28;4.40;99.90
15617;DHT22;7908;51.688;7.130;2023-02-28T15:34:18;4.40;99.90
15617;DHT22;7908;51.688;7.130;2023-02-28T15:36:50;4.40;99.90
15617;DHT22;7908;51.688;7.130;2023-02-28T15:39:21;4.40;99.90
15617;DHT22;7908;51.688;7.130;2023-02-28T15:41:54;4.40;99.90
15617;DHT22;7908;51.688;7.130;2023-02-28T15:44:37;4.40;99.90
15617;DHT22;7908;51.688;7.130;2023-02-28T15:47:14;4.30;99.90
15617;DHT22;7908;51.688;7.130;2023-02-28T15:49:47;4.40;99.90
15617;DHT22;7908;51.688;7.130;2023-02-28T15:52:19;4.40;99.90
15617;DHT22;7908;51.688;7.130;2023-02-28T15:54:50;4.40;99.90
15617;DHT22;7908;51.688;7.130;2023-02-28T15:57:22;4.40;99.90
15617;DHT22;7908;51.688;7.130;2023-02-28T15:59:55;4.30;99.90
15617;DHT22;7908;51.688;7.130;2023-02-28T16:02:31;4.40;99.90
15617;DHT22;7908;51.688;7.130;2023-02-28T16:05:19;4.40;99.90
15617;DHT22;7908;51.688;7.130;2023-02-28T16:07:48;4.30;99.90
15617;DHT22;7908;51.688;7.130;2023-02-28T16:10:17;4.30;99.90
15617;DHT22;7908;51.688;7.130;2023-02-28T16:12:48;4.30;99.90
15617;DHT22;7908;51.688;7.130;2023-02-28T16:15:19;4.30;99.90
15617;DHT22;7908;51.688;7.130;2023-02-28T16:17:50;4.30;99.90
15617;DHT22;7908;51.688;7.130;2023-02-28T16:20:22;4.30;99.90
15617;DHT22;7908;51.688;7.130;2023-02-28T16:22:51;4.30;99.90
15617;DHT22;7908;51.688;7.130;2023-02-28T16:25:23;4.30;99.90
15617;DHT22;7908;51.688;7.130;2023-02-28T16:27:56;4.20;99.90
15617;DHT22;7908;51.688;7.130;2023-02-28T16:30:28;4.20;99.90
15617;DHT22;7908;51.688;7.130;2023-02-28T16:32:59;4.20;99.90
15617;DHT22;7908;51.688;7.130;2023-02-28T16:35:28;4.20;99.90
15617;DHT22;7908;51.688;7.130;2023-02-28T16:37:58;4.10;99.90
15617;DHT22;7908;51.688;7.130;2023-02-28T16:40:33;4.00;99.90
15617;DHT22;7908;51.688;7.130;2023-02-28T16:43:10;4.00;99.90
15617;DHT22;7908;51.688;7.130;2023-02-28T16:45:43;4.00;99.90
15617;DHT22;7908;51.688;7.130;2023-02-28T16:48:14;4.00;99.90
15617;DHT22;7908;51.688;7.130;2023-02-28T16:50:43;3.80;99.90
15617;DHT22;7908;51.688;7.130;2023-02-28T16:53:12;3.80;99.90
15617;DHT22;7908;51.688;7.130;2023-02-28T16:55:42;3.70;99.90
15617;DHT22;7908;51.688;7.130;2023-02-28T16:58:15;3.70;99.90
15617;DHT22;7908;51.688;7.130;2023-02-28T17:00:44;3.70;99.90
15617;DHT22;7908;51.688;7.130;2023-02-28T17:03:22;3.60;99.90
15617;DHT22;7908;51.688;7.130;2023-02-28T17:05:59;3.60;99.90